sensor_id;sensor_type;location;lat;lon;timestamp;pressure;altitude;pressure_sealevel;temperature;humidity
70127;BME280;57491;42.694;23.314;2023-04-15T00:00:43;94372.19;;;10.95;53.66
70127;BME280;57491;42.694;23.314;2023-04-15T00:03:11;94379.78;;;10.83;53.44
70127;BME280;57491;42.694;23.314;2023-04-15T00:05:38;94387.56;;;10.70;53.80
70127;BME280;57491;42.694;23.314;2023-04-15T00:08:05;94388.75;;;10.67;54.70
70127;BME280;57491;42.694;23.314;2023-04-15T00:10:32;94388.16;;;10.72;54.43
70127;BME280;57491;42.694;23.314;2023-04-15T00:13:00;94379.00;;;10.76;55.41
70127;BME280;57491;42.694;23.314;2023-04-15T00:15:30;94378.59;;;10.92;55.10
70127;BME280;57491;42.694;23.314;2023-04-15T00:17:57;94376.22;;;10.97;54.33
70127;BME280;57491;42.694;23.314;2023-04-15T00:20:24;94369.22;;;10.98;54.64
70127;BME280;57491;42.694;23.314;2023-04-15T00:22:51;94376.44;;;11.02;53.19
70127;BME280;57491;42.694;23.314;2023-04-15T00:25:19;94373.22;;;11.07;53.25
70127;BME280;57491;42.694;23.314;2023-04-15T00:27:46;94372.81;;;11.10;52.15
70127;BME280;57491;42.694;23.314;2023-04-15T00:30:13;94369.41;;;11.09;52.36
70127;BME280;57491;42.694;23.314;2023-04-15T00:32:42;94370.44;;;11.15;53.15
70127;BME280;57491;42.694;23.314;2023-04-15T00:35:09;94376.22;;;11.17;53.10
70127;BME280;57491;42.694;23.314;2023-04-15T00:37:36;94380.03;;;11.14;53.65
70127;BME280;57491;42.694;23.314;2023-04-15T00:40:04;94379.63;;;11.17;54.37
70127;BME280;57491;42.694;23.314;2023-04-15T00:42:33;94374.03;;;11.14;55.41
70127;BME280;57491;42.694;23.314;2023-04-15T00:45:01;94388.84;;;11.33;57.45
70127;BME280;57491;42.694;23.314;2023-04-15T00:47:28;94387.44;;;11.37;57.19
70127;BME280;57491;42.694;23.314;2023-04-15T00:49:58;94379.84;;;11.36;57.10
70127;BME280;57491;42.694;23.314;2023-04-15T00:52:24;94381.03;;;11.40;56.21
70127;BME280;57491;42.694;23.314;2023-04-15T00:54:52;94377.22;;;11.36;57.23
70127;BME280;57491;42.694;23.314;2023-04-15T00:57:20;94368.44;;;11.37;57.23
70127;BME280;57491;42.694;23.314;2023-04-15T00:59:48;94367.41;;;11.31;56.16
70127;BME280;57491;42.694;23.314;2023-04-15T01:02:15;94377.63;;;11.19;54.73
70127;BME280;57491;42.694;23.314;2023-04-15T01:04:43;94381.41;;;11.04;54.81
70127;BME280;57491;42.694;23.314;2023-04-15T01:07:11;94382.22;;;11.04;56.07
70127;BME280;57491;42.694;23.314;2023-04-15T01:09:38;94400.44;;;11.11;56.65
70127;BME280;57491;42.694;23.314;2023-04-15T01:12:06;94398.66;;;11.11;56.52
70127;BME280;57491;42.694;23.314;2023-04-15T01:14:35;94395.03;;;11.12;56.44
70127;BME280;57491;42.694;23.314;2023-04-15T01:17:02;94383.25;;;11.16;57.46
70127;BME280;57491;42.694;23.314;2023-04-15T01:19:29;94376.22;;;11.10;56.15
70127;BME280;57491;42.694;23.314;2023-04-15T01:21:57;94375.22;;;10.98;56.22
70127;BME280;57491;42.694;23.314;2023-04-15T01:24:26;94384.59;;;10.86;56.56
70127;BME280;57491;42.694;23.314;2023-04-15T01:26:55;94379.75;;;10.77;56.91
70127;BME280;57491;42.694;23.314;2023-04-15T01:29:22;94382.56;;;10.82;57.80
70127;BME280;57491;42.694;23.314;2023-04-15T01:31:50;94379.78;;;10.83;57.11
70127;BME280;57491;42.694;23.314;2023-04-15T01:34:17;94374.19;;;10.86;56.63
70127;BME280;57491;42.694;23.314;2023-04-15T01:36:44;94381.03;;;10.94;56.31
70127;BME280;57491;42.694;23.314;2023-04-15T01:39:12;94377.81;;;10.92;56.68
70127;BME280;57491;42.694;23.314;2023-04-15T01:41:39;94374.59;;;10.96;56.67
70127;BME280;57491;42.694;23.314;2023-04-15T01:44:08;94376.22;;;10.97;57.05
70127;BME280;57491;42.694;23.314;2023-04-15T01:46:35;94376.22;;;10.97;57.59
70127;BME280;57491;42.694;23.314;2023-04-15T01:49:02;94379.81;;;11.09;57.64
70127;BME280;57491;42.694;23.314;2023-04-15T01:51:29;94382.03;;;11.12;58.18
70127;BME280;57491;42.694;23.314;2023-04-15T01:53:56;94376.03;;;11.05;56.73
70127;BME280;57491;42.694;23.314;2023-04-15T01:56:23;94399.63;;;11.04;57.24
70127;BME280;57491;42.694;23.314;2023-04-15T01:58:52;94388.59;;;10.82;56.95
70127;BME280;57491;42.694;23.314;2023-04-15T02:01:21;94394.75;;;10.68;57.52
70127;BME280;57491;42.694;23.314;2023-04-15T02:03:48;94374.84;;;10.41;57.27
70127;BME280;57491;42.694;23.314;2023-04-15T02:06:15;94397.31;;;10.55;57.37
70127;BME280;57491;42.694;23.314;2023-04-15T02:08:42;94405.94;;;10.68;58.45
70127;BME280;57491;42.694;23.314;2023-04-15T02:11:09;94393.97;;;10.74;58.70
70127;BME280;57491;42.694;23.314;2023-04-15T02:13:36;94395.38;;;10.83;58.91
70127;BME280;57491;42.694;23.314;2023-04-15T02:16:14;94391.41;;;10.87;59.36
70127;BME280;57491;42.694;23.314;2023-04-15T02:18:43;94387.81;;;10.88;58.96
70127;BME280;57491;42.694;23.314;2023-04-15T02:21:10;94396.59;;;10.87;59.27
70127;BME280;57491;42.694;23.314;2023-04-15T02:23:37;94394.16;;;10.66;58.16
70127;BME280;57491;42.694;23.314;2023-04-15T02:26:04;94394.13;;;10.59;58.33
70127;BME280;57491;42.694;23.314;2023-04-15T02:28:31;94390.50;;;10.54;58.70
70127;BME280;57491;42.694;23.314;2023-04-15T02:30:58;94386.44;;;10.38;57.70
70127;BME280;57491;42.694;23.314;2023-04-15T02:33:26;94384.84;;;10.31;59.46
70127;BME280;57491;42.694;23.314;2023-04-15T02:35:55;94367.91;;;10.13;59.50
70127;BME280;57491;42.694;23.314;2023-04-15T02:38:22;94389.81;;;10.25;59.86
70127;BME280;57491;42.694;23.314;2023-04-15T02:40:49;94396.28;;;10.08;59.30
70127;BME280;57491;42.694;23.314;2023-04-15T02:43:16;94398.66;;;10.03;60.01
70127;BME280;57491;42.694;23.314;2023-04-15T02:45:44;94395.78;;;9.92;59.70
70127;BME280;57491;42.694;23.314;2023-04-15T02:48:11;94401.13;;;9.83;60.63
70127;BME280;57491;42.694;23.314;2023-04-15T02:50:39;94402.84;;;9.70;60.57
70127;BME280;57491;42.694;23.314;2023-04-15T02:53:07;94400.53;;;9.54;60.68
70127;BME280;57491;42.694;23.314;2023-04-15T02:55:34;94383.13;;;9.48;62.43
70127;BME280;57491;42.694;23.314;2023-04-15T02:58:01;94400.66;;;9.46;61.05
70127;BME280;57491;42.694;23.314;2023-04-15T03:00:28;94404.25;;;9.45;61.41
70127;BME280;57491;42.694;23.314;2023-04-15T03:02:57;94400.91;;;9.51;62.53
70127;BME280;57491;42.694;23.314;2023-04-15T03:05:25;94410.13;;;9.53;61.89
70127;BME280;57491;42.694;23.314;2023-04-15T03:07:52;94413.78;;;9.37;60.49
70127;BME280;57491;42.694;23.314;2023-04-15T03:10:21;94407.31;;;9.27;60.44
70127;BME280;57491;42.694;23.314;2023-04-15T03:12:48;94420.03;;;9.22;61.48
70127;BME280;57491;42.694;23.314;2023-04-15T03:15:15;94428.00;;;9.20;61.76
70127;BME280;57491;42.694;23.314;2023-04-15T03:17:42;94425.56;;;9.19;60.14
70127;BME280;57491;42.694;23.314;2023-04-15T03:20:09;94409.16;;;9.12;61.86
70127;BME280;57491;42.694;23.314;2023-04-15T03:22:36;94429.19;;;9.18;61.55
70127;BME280;57491;42.694;23.314;2023-04-15T03:25:04;94417.06;;;9.04;60.06
70127;BME280;57491;42.694;23.314;2023-04-15T03:27:33;94421.84;;;9.00;61.51
70127;BME280;57491;42.694;23.314;2023-04-15T03:30:00;94434.59;;;9.02;61.60
70127;BME280;57491;42.694;23.314;2023-04-15T03:32:27;94444.72;;;8.96;61.74
70127;BME280;57491;42.694;23.314;2023-04-15T03:34:54;94438.72;;;8.96;62.56
70127;BME280;57491;42.694;23.314;2023-04-15T03:37:21;94452.31;;;8.98;61.31
70127;BME280;57491;42.694;23.314;2023-04-15T03:39:48;94453.28;;;8.97;61.95
70127;BME280;57491;42.694;23.314;2023-04-15T03:42:15;94454.59;;;9.08;62.61
70127;BME280;57491;42.694;23.314;2023-04-15T03:44:44;94467.94;;;9.05;62.71
70127;BME280;57491;42.694;23.314;2023-04-15T03:47:11;94468.13;;;9.03;62.60
70127;BME280;57491;42.694;23.314;2023-04-15T03:49:38;94473.97;;;8.90;61.42
70127;BME280;57491;42.694;23.314;2023-04-15T03:52:05;94460.47;;;8.95;61.81
70127;BME280;57491;42.694;23.314;2023-04-15T03:54:32;94479.09;;;9.05;63.11
70127;BME280;57491;42.694;23.314;2023-04-15T03:56:59;94482.06;;;9.02;61.35
70127;BME280;57491;42.694;23.314;2023-04-15T03:59:26;94471.88;;;9.01;60.82
70127;BME280;57491;42.694;23.314;2023-04-15T04:01:54;94465.09;;;9.00;60.97
70127;BME280;57491;42.694;23.314;2023-04-15T04:04:21;94465.28;;;8.98;60.93
70127;BME280;57491;42.694;23.314;2023-04-15T04:06:48;94468.84;;;8.97;61.11
70127;BME280;57491;42.694;23.314;2023-04-15T04:09:15;94475.78;;;8.90;61.43
70127;BME280;57491;42.694;23.314;2023-04-15T04:11:42;94471.69;;;8.81;61.97
70127;BME280;57491;42.694;23.314;2023-04-15T04:14:10;94464.38;;;8.70;62.63
70127;BME280;57491;42.694;23.314;2023-04-15T04:16:37;94470.19;;;8.72;63.11
70127;BME280;57491;42.694;23.314;2023-04-15T04:19:06;94472.50;;;8.67;62.72
70127;BME280;57491;42.694;23.314;2023-04-15T04:21:33;94475.22;;;8.59;63.87
70127;BME280;57491;42.694;23.314;2023-04-15T04:24:01;94479.66;;;8.65;63.49
70127;BME280;57491;42.694;23.314;2023-04-15T04:26:28;94481.97;;;8.74;65.17
70127;BME280;57491;42.694;23.314;2023-04-15T04:28:55;94483.16;;;8.93;64.72
70127;BME280;57491;42.694;23.314;2023-04-15T04:31:22;94486.34;;;9.10;63.84
70127;BME280;57491;42.694;23.314;2023-04-15T04:33:49;94483.09;;;9.22;63.73
70127;BME280;57491;42.694;23.314;2023-04-15T04:36:19;94464.41;;;9.33;63.50
70127;BME280;57491;42.694;23.314;2023-04-15T04:38:46;94482.13;;;9.51;62.94
70127;BME280;57491;42.694;23.314;2023-04-15T04:41:13;94482.00;;;9.59;60.32
70127;BME280;57491;42.694;23.314;2023-04-15T04:43:40;94484.56;;;9.53;60.17
70127;BME280;57491;42.694;23.314;2023-04-15T04:46:07;94489.78;;;9.59;59.81
70127;BME280;57491;42.694;23.314;2023-04-15T04:48:34;94492.63;;;9.64;59.28
70127;BME280;57491;42.694;23.314;2023-04-15T04:51:02;94480.47;;;9.65;59.26
70127;BME280;57491;42.694;23.314;2023-04-15T04:53:30;94486.00;;;9.83;60.18
70127;BME280;57491;42.694;23.314;2023-04-15T04:55:57;94501.34;;;10.06;60.06
70127;BME280;57491;42.694;23.314;2023-04-15T04:58:24;94506.16;;;10.09;60.49
70127;BME280;57491;42.694;23.314;2023-04-15T05:00:51;94497.94;;;10.26;60.60
70127;BME280;57491;42.694;23.314;2023-04-15T05:03:18;94508.66;;;10.51;59.01
70127;BME280;57491;42.694;23.314;2023-04-15T05:05:45;94506.75;;;10.73;58.05
70127;BME280;57491;42.694;23.314;2023-04-15T05:08:14;94512.22;;;10.85;56.61
70127;BME280;57491;42.694;23.314;2023-04-15T05:10:42;94511.25;;;10.92;55.29
70127;BME280;57491;42.694;23.314;2023-04-15T05:13:09;94511.88;;;11.01;55.77
70127;BME280;57491;42.694;23.314;2023-04-15T05:15:36;94522.31;;;11.07;54.17
70127;BME280;57491;42.694;23.314;2023-04-15T05:18:05;94530.94;;;11.14;53.58
70127;BME280;57491;42.694;23.314;2023-04-15T05:20:32;94534.38;;;11.35;52.42
70127;BME280;57491;42.694;23.314;2023-04-15T05:22:59;94543.81;;;11.49;51.64
70127;BME280;57491;42.694;23.314;2023-04-15T05:25:27;94531.03;;;11.54;50.62
70127;BME280;57491;42.694;23.314;2023-04-15T05:27:55;94535.03;;;11.63;51.78
70127;BME280;57491;42.694;23.314;2023-04-15T05:30:22;94531.66;;;11.69;51.35
70127;BME280;57491;42.694;23.314;2023-04-15T05:32:49;94534.91;;;11.78;51.11
70127;BME280;57491;42.694;23.314;2023-04-15T05:35:16;94518.66;;;11.89;50.96
70127;BME280;57491;42.694;23.314;2023-04-15T05:37:43;94528.69;;;12.05;50.73
70127;BME280;57491;42.694;23.314;2023-04-15T05:40:11;94516.88;;;12.16;51.08
70127;BME280;57491;42.694;23.314;2023-04-15T05:42:39;94523.84;;;12.35;49.86
70127;BME280;57491;42.694;23.314;2023-04-15T05:45:08;94529.06;;;12.41;49.45
70127;BME280;57491;42.694;23.314;2023-04-15T05:47:35;94522.25;;;12.47;49.73
70127;BME280;57491;42.694;23.314;2023-04-15T05:50:02;94526.03;;;12.58;48.59
70127;BME280;57491;42.694;23.314;2023-04-15T05:52:30;94527.78;;;12.70;48.51
70127;BME280;57491;42.694;23.314;2023-04-15T05:54:57;94534.00;;;12.82;48.04
70127;BME280;57491;42.694;23.314;2023-04-15T05:57:24;94534.75;;;12.96;48.03
70127;BME280;57491;42.694;23.314;2023-04-15T05:59:51;94531.34;;;12.95;47.37
70127;BME280;57491;42.694;23.314;2023-04-15T06:02:20;94546.75;;;13.17;47.39
70127;BME280;57491;42.694;23.314;2023-04-15T06:04:47;94537.16;;;13.42;46.86
70127;BME280;57491;42.694;23.314;2023-04-15T06:07:14;94534.09;;;13.58;46.70
70127;BME280;57491;42.694;23.314;2023-04-15T06:09:41;94542.59;;;13.78;45.50
70127;BME280;57491;42.694;23.314;2023-04-15T06:12:09;94545.03;;;13.73;45.74
70127;BME280;57491;42.694;23.314;2023-04-15T06:14:37;94532.91;;;13.85;45.33
70127;BME280;57491;42.694;23.314;2023-04-15T06:17:05;94545.91;;;13.92;44.30
70127;BME280;57491;42.694;23.314;2023-04-15T06:19:34;94551.19;;;14.10;44.49
70127;BME280;57491;42.694;23.314;2023-04-15T06:22:02;94556.78;;;14.14;43.70
70127;BME280;57491;42.694;23.314;2023-04-15T06:24:31;94557.38;;;14.22;43.68
70127;BME280;57491;42.694;23.314;2023-04-15T06:26:58;94556.53;;;14.53;43.11
70127;BME280;57491;42.694;23.314;2023-04-15T06:29:26;94563.91;;;14.81;43.80
70127;BME280;57491;42.694;23.314;2023-04-15T06:31:55;94564.56;;;14.95;42.74
70127;BME280;57491;42.694;23.314;2023-04-15T06:34:22;94563.63;;;15.07;42.49
70127;BME280;57491;42.694;23.314;2023-04-15T06:36:50;94569.06;;;15.24;41.71
70127;BME280;57491;42.694;23.314;2023-04-15T06:39:19;94576.69;;;15.44;40.89
70127;BME280;57491;42.694;23.314;2023-04-15T06:41:46;94578.34;;;15.56;40.42
70127;BME280;57491;42.694;23.314;2023-04-15T06:44:13;94570.47;;;15.75;40.29
70127;BME280;57491;42.694;23.314;2023-04-15T06:46:40;94578.84;;;15.95;40.39
70127;BME280;57491;42.694;23.314;2023-04-15T06:49:07;94581.13;;;16.03;40.37
70127;BME280;57491;42.694;23.314;2023-04-15T06:51:34;94584.06;;;16.25;39.55
70127;BME280;57491;42.694;23.314;2023-04-15T06:54:03;94583.13;;;16.31;39.12
70127;BME280;57491;42.694;23.314;2023-04-15T06:56:30;94584.66;;;16.38;38.97
70127;BME280;57491;42.694;23.314;2023-04-15T06:58:57;94574.06;;;16.57;38.35
70127;BME280;57491;42.694;23.314;2023-04-15T07:01:24;94575.78;;;16.86;38.19
70127;BME280;57491;42.694;23.314;2023-04-15T07:03:52;94579.19;;;16.98;37.79
70127;BME280;57491;42.694;23.314;2023-04-15T07:06:19;94571.75;;;17.07;37.61
70127;BME280;57491;42.694;23.314;2023-04-15T07:08:46;94575.97;;;17.19;38.07
70127;BME280;57491;42.694;23.314;2023-04-15T07:11:15;94570.22;;;17.34;37.62
70127;BME280;57491;42.694;23.314;2023-04-15T07:13:42;94571.88;;;17.52;36.73
70127;BME280;57491;42.694;23.314;2023-04-15T07:16:09;94578.41;;;17.61;36.76
70127;BME280;57491;42.694;23.314;2023-04-15T07:18:36;94579.59;;;17.81;35.95
70127;BME280;57491;42.694;23.314;2023-04-15T07:21:03;94576.66;;;17.66;36.25
70127;BME280;57491;42.694;23.314;2023-04-15T07:23:30;94576.63;;;17.78;35.73
70127;BME280;57491;42.694;23.314;2023-04-15T07:25:57;94576.19;;;17.98;35.68
70127;BME280;57491;42.694;23.314;2023-04-15T07:28:26;94581.00;;;18.17;35.14
70127;BME280;57491;42.694;23.314;2023-04-15T07:30:53;94584.75;;;18.21;34.94
70127;BME280;57491;42.694;23.314;2023-04-15T07:33:21;94585.09;;;18.25;34.76
70127;BME280;57491;42.694;23.314;2023-04-15T07:35:48;94579.69;;;18.32;34.83
70127;BME280;57491;42.694;23.314;2023-04-15T07:38:15;94577.25;;;18.58;34.81
70127;BME280;57491;42.694;23.314;2023-04-15T07:40:42;94573.31;;;18.78;33.79
70127;BME280;57491;42.694;23.314;2023-04-15T07:43:10;94573.09;;;19.17;32.64
70127;BME280;57491;42.694;23.314;2023-04-15T07:45:39;94557.28;;;19.17;32.61
70127;BME280;57491;42.694;23.314;2023-04-15T07:48:06;94576.34;;;19.46;32.33
70127;BME280;57491;42.694;23.314;2023-04-15T07:50:33;94584.88;;;19.15;32.52
70127;BME280;57491;42.694;23.314;2023-04-15T07:53:00;94576.72;;;19.55;31.94
70127;BME280;57491;42.694;23.314;2023-04-15T07:55:27;94576.72;;;19.77;32.27
70127;BME280;57491;42.694;23.314;2023-04-15T07:57:54;94588.38;;;19.81;30.89
70127;BME280;57491;42.694;23.314;2023-04-15T08:00:22;94589.19;;;20.08;31.21
70127;BME280;57491;42.694;23.314;2023-04-15T08:02:50;94590.72;;;20.31;31.13
70127;BME280;57491;42.694;23.314;2023-04-15T08:05:18;94599.63;;;20.52;30.41
70127;BME280;57491;42.694;23.314;2023-04-15T08:07:45;94594.22;;;20.68;30.02
70127;BME280;57491;42.694;23.314;2023-04-15T08:10:13;94588.50;;;20.81;29.48
70127;BME280;57491;42.694;23.314;2023-04-15T08:12:40;94595.53;;;21.08;28.86
70127;BME280;57491;42.694;23.314;2023-04-15T08:15:08;94594.03;;;21.17;28.97
70127;BME280;57491;42.694;23.314;2023-04-15T08:17:35;94593.56;;;21.30;29.07
70127;BME280;57491;42.694;23.314;2023-04-15T08:20:04;94588.16;;;21.52;28.34
70127;BME280;57491;42.694;23.314;2023-04-15T08:22:32;94591.91;;;21.71;27.98
70127;BME280;57491;42.694;23.314;2023-04-15T08:24:59;94586.78;;;22.06;27.82
70127;BME280;57491;42.694;23.314;2023-04-15T08:27:26;94592.38;;;22.45;26.71
70127;BME280;57491;42.694;23.314;2023-04-15T08:29:53;94583.94;;;22.74;25.28
70127;BME280;57491;42.694;23.314;2023-04-15T08:32:20;94586.03;;;22.51;25.03
70127;BME280;57491;42.694;23.314;2023-04-15T08:34:47;94574.66;;;22.56;24.44
70127;BME280;57491;42.694;23.314;2023-04-15T08:37:15;94577.00;;;22.67;24.46
70127;BME280;57491;42.694;23.314;2023-04-15T08:39:42;94572.81;;;22.77;24.18
70127;BME280;57491;42.694;23.314;2023-04-15T08:42:13;94566.94;;;23.05;23.22
70127;BME280;57491;42.694;23.314;2023-04-15T08:44:42;94566.59;;;23.32;23.17
70127;BME280;57491;42.694;23.314;2023-04-15T08:47:12;94571.09;;;23.41;23.88
70127;BME280;57491;42.694;23.314;2023-04-15T08:49:41;94564.78;;;23.17;23.68
70127;BME280;57491;42.694;23.314;2023-04-15T08:52:09;94571.16;;;23.06;24.00
70127;BME280;57491;42.694;23.314;2023-04-15T08:54:38;94561.66;;;22.85;24.56
70127;BME280;57491;42.694;23.314;2023-04-15T08:57:05;94553.94;;;22.93;24.53
70127;BME280;57491;42.694;23.314;2023-04-15T08:59:32;94561.91;;;22.68;23.97
70127;BME280;57491;42.694;23.314;2023-04-15T09:02:00;94550.75;;;23.01;25.02
70127;BME280;57491;42.694;23.314;2023-04-15T09:04:28;94556.84;;;23.02;23.88
70127;BME280;57491;42.694;23.314;2023-04-15T09:06:56;94553.88;;;23.24;24.83
70127;BME280;57491;42.694;23.314;2023-04-15T09:09:23;94552.41;;;23.72;24.20
70127;BME280;57491;42.694;23.314;2023-04-15T09:11:51;94560.75;;;24.04;24.21
70127;BME280;57491;42.694;23.314;2023-04-15T09:14:18;94541.00;;;24.20;24.63
70127;BME280;57491;42.694;23.314;2023-04-15T09:16:58;94543.94;;;24.53;24.26
70127;BME280;57491;42.694;23.314;2023-04-15T09:19:25;94542.94;;;24.77;23.53
70127;BME280;57491;42.694;23.314;2023-04-15T09:21:54;94527.94;;;24.92;23.34
70127;BME280;57491;42.694;23.314;2023-04-15T09:24:22;94526.66;;;25.37;22.51
70127;BME280;57491;42.694;23.314;2023-04-15T09:26:52;94539.47;;;25.53;21.52
70127;BME280;57491;42.694;23.314;2023-04-15T09:29:23;94537.69;;;25.49;21.76
70127;BME280;57491;42.694;23.314;2023-04-15T09:31:51;94538.69;;;25.05;22.46
70127;BME280;57491;42.694;23.314;2023-04-15T09:34:18;94540.53;;;24.81;22.12
70127;BME280;57491;42.694;23.314;2023-04-15T09:36:53;94542.38;;;24.80;21.87
70127;BME280;57491;42.694;23.314;2023-04-15T09:39:20;94531.94;;;24.26;22.71
70127;BME280;57491;42.694;23.314;2023-04-15T09:42:03;94540.41;;;23.84;23.70
70127;BME280;57491;42.694;23.314;2023-04-15T09:44:31;94538.47;;;24.00;22.88
70127;BME280;57491;42.694;23.314;2023-04-15T09:46:58;94545.19;;;24.31;22.02
70127;BME280;57491;42.694;23.314;2023-04-15T09:49:26;94542.28;;;24.23;21.90
70127;BME280;57491;42.694;23.314;2023-04-15T09:51:57;94519.28;;;24.08;22.29
70127;BME280;57491;42.694;23.314;2023-04-15T09:54:24;94524.28;;;24.10;22.49
70127;BME280;57491;42.694;23.314;2023-04-15T09:56:52;94529.69;;;23.99;22.07
70127;BME280;57491;42.694;23.314;2023-04-15T09:59:21;94545.97;;;23.83;22.51
70127;BME280;57491;42.694;23.314;2023-04-15T10:01:48;94536.44;;;23.82;22.43
70127;BME280;57491;42.694;23.314;2023-04-15T10:04:16;94536.97;;;23.79;22.50
70127;BME280;57491;42.694;23.314;2023-04-15T10:06:43;94535.19;;;23.64;21.87
70127;BME280;57491;42.694;23.314;2023-04-15T10:09:14;94531.97;;;23.72;21.85
70127;BME280;57491;42.694;23.314;2023-04-15T10:11:42;94532.47;;;23.74;21.32
70127;BME280;57491;42.694;23.314;2023-04-15T10:14:12;94526.41;;;24.13;21.87
70127;BME280;57491;42.694;23.314;2023-04-15T10:16:42;94525.22;;;24.34;20.49
70127;BME280;57491;42.694;23.314;2023-04-15T10:19:14;94520.81;;;24.19;20.24
70127;BME280;57491;42.694;23.314;2023-04-15T10:21:45;94515.84;;;24.41;20.58
70127;BME280;57491;42.694;23.314;2023-04-15T10:24:12;94514.09;;;24.61;20.52
70127;BME280;57491;42.694;23.314;2023-04-15T10:26:40;94510.47;;;24.80;20.26
70127;BME280;57491;42.694;23.314;2023-04-15T10:29:07;94516.22;;;24.93;20.24
70127;BME280;57491;42.694;23.314;2023-04-15T10:31:38;94518.06;;;24.34;20.61
70127;BME280;57491;42.694;23.314;2023-04-15T10:34:07;94507.38;;;24.39;19.92
70127;BME280;57491;42.694;23.314;2023-04-15T10:36:35;94500.66;;;23.69;18.95
70127;BME280;57491;42.694;23.314;2023-04-15T10:39:42;94503.22;;;24.28;19.94
70127;BME280;57491;42.694;23.314;2023-04-15T10:42:11;94505.63;;;24.87;18.95
70127;BME280;57491;42.694;23.314;2023-04-15T10:44:38;94503.72;;;25.41;18.04
70127;BME280;57491;42.694;23.314;2023-04-15T10:47:13;94513.94;;;25.33;17.91
70127;BME280;57491;42.694;23.314;2023-04-15T10:49:45;94490.66;;;25.20;18.80
70127;BME280;57491;42.694;23.314;2023-04-15T10:52:14;94490.34;;;25.46;19.40
70127;BME280;57491;42.694;23.314;2023-04-15T10:54:41;94495.44;;;25.66;18.79
70127;BME280;57491;42.694;23.314;2023-04-15T10:57:13;94502.84;;;25.69;19.66
70127;BME280;57491;42.694;23.314;2023-04-15T11:00:11;94495.38;;;26.08;19.38
70127;BME280;57491;42.694;23.314;2023-04-15T11:02:41;94487.97;;;26.89;18.42
70127;BME280;57491;42.694;23.314;2023-04-15T11:05:09;94477.63;;;27.28;17.66
70127;BME280;57491;42.694;23.314;2023-04-15T11:07:38;94480.78;;;27.17;17.25
70127;BME280;57491;42.694;23.314;2023-04-15T11:13:15;94479.19;;;25.86;17.64
70127;BME280;57491;42.694;23.314;2023-04-15T11:15:43;94501.22;;;26.10;16.78
70127;BME280;57491;42.694;23.314;2023-04-15T11:18:14;94485.38;;;26.38;16.56
70127;BME280;57491;42.694;23.314;2023-04-15T11:20:43;94482.09;;;26.41;17.93
70127;BME280;57491;42.694;23.314;2023-04-15T11:23:11;94479.69;;;25.46;18.17
70127;BME280;57491;42.694;23.314;2023-04-15T11:25:38;94485.03;;;25.22;17.60
70127;BME280;57491;42.694;23.314;2023-04-15T11:28:05;94484.16;;;25.50;19.02
70127;BME280;57491;42.694;23.314;2023-04-15T11:30:33;94484.72;;;24.76;18.81
70127;BME280;57491;42.694;23.314;2023-04-15T11:33:03;94485.91;;;23.92;18.07
70127;BME280;57491;42.694;23.314;2023-04-15T11:35:32;94480.91;;;23.90;18.99
70127;BME280;57491;42.694;23.314;2023-04-15T11:38:02;94473.63;;;24.01;18.77
70127;BME280;57491;42.694;23.314;2023-04-15T11:40:30;94480.03;;;24.00;17.70
70127;BME280;57491;42.694;23.314;2023-04-15T11:43:05;94465.59;;;24.11;17.22
70127;BME280;57491;42.694;23.314;2023-04-15T11:45:32;94465.47;;;23.53;17.95
70127;BME280;57491;42.694;23.314;2023-04-15T11:48:06;94476.25;;;24.06;17.89
70127;BME280;57491;42.694;23.314;2023-04-15T11:50:35;94470.38;;;23.75;18.54
70127;BME280;57491;42.694;23.314;2023-04-15T11:53:03;94474.56;;;23.27;18.86
70127;BME280;57491;42.694;23.314;2023-04-15T11:55:40;94471.63;;;23.34;19.59
70127;BME280;57491;42.694;23.314;2023-04-15T11:58:08;94472.53;;;23.09;20.03
70127;BME280;57491;42.694;23.314;2023-04-15T12:00:37;94458.59;;;22.78;20.00
70127;BME280;57491;42.694;23.314;2023-04-15T12:03:18;94465.38;;;23.09;20.33
70127;BME280;57491;42.694;23.314;2023-04-15T12:06:07;94470.31;;;23.31;20.20
70127;BME280;57491;42.694;23.314;2023-04-15T12:08:51;94468.69;;;23.35;20.04
70127;BME280;57491;42.694;23.314;2023-04-15T12:11:19;94474.75;;;23.95;20.33
70127;BME280;57491;42.694;23.314;2023-04-15T12:13:47;94462.66;;;24.47;19.22
70127;BME280;57491;42.694;23.314;2023-04-15T12:16:16;94464.97;;;25.11;18.40
70127;BME280;57491;42.694;23.314;2023-04-15T12:18:44;94468.59;;;24.96;17.96
70127;BME280;57491;42.694;23.314;2023-04-15T12:21:13;94456.91;;;24.63;18.75
70127;BME280;57491;42.694;23.314;2023-04-15T12:23:47;94462.34;;;24.24;18.53
70127;BME280;57491;42.694;23.314;2023-04-15T12:26:14;94466.47;;;24.40;19.72
70127;BME280;57491;42.694;23.314;2023-04-15T12:28:41;94468.47;;;24.77;18.10
70127;BME280;57491;42.694;23.314;2023-04-15T12:31:09;94468.31;;;24.40;18.00
70127;BME280;57491;42.694;23.314;2023-04-15T12:33:36;94464.31;;;23.65;19.18
70127;BME280;57491;42.694;23.314;2023-04-15T12:36:04;94468.31;;;22.93;19.70
70127;BME280;57491;42.694;23.314;2023-04-15T12:38:32;94480.06;;;22.36;20.42
70127;BME280;57491;42.694;23.314;2023-04-15T12:40:59;94479.28;;;22.31;20.88
70127;BME280;57491;42.694;23.314;2023-04-15T12:43:26;94474.22;;;22.34;20.61
70127;BME280;57491;42.694;23.314;2023-04-15T12:45:53;94480.59;;;22.13;21.21
70127;BME280;57491;42.694;23.314;2023-04-15T12:48:21;94474.78;;;22.11;21.31
70127;BME280;57491;42.694;23.314;2023-04-15T12:50:48;94476.91;;;22.24;20.99
70127;BME280;57491;42.694;23.314;2023-04-15T12:53:14;94482.19;;;21.99;21.18
70127;BME280;57491;42.694;23.314;2023-04-15T12:55:43;94473.19;;;21.95;21.95
70127;BME280;57491;42.694;23.314;2023-04-15T12:58:10;94479.78;;;21.92;21.66
70127;BME280;57491;42.694;23.314;2023-04-15T13:00:37;94485.38;;;22.01;21.64